Observation data for Plains on 07/18/2019      Previous  Date  Next       Current Mesonet Observations  Soil Data  Daily Summary Page  Observations in Plain Language
KPPS 180500Z 18011KT 25/15 A30 RMK A01 T02450147  RH  057%=      5-min Rain = 0
KPPS 180505Z 19011KT 24/15 A30 RMK A01 T02440145  RH  056%=      5-min Rain = 0
KPPS 180510Z 18012KT 24/15 A30 RMK A01 T02430145  RH  057%=      5-min Rain = 0
KPPS 180515Z 18013KT 24/14 A30 RMK A01 T02440143  RH  056%=      5-min Rain = 0
KPPS 180520Z 17012KT 24/14 A30 RMK A01 T02430142  RH  055%=      5-min Rain = 0
KPPS 180525Z 17012KT 24/14 A30 RMK A01 T02440142  RH  055%=      5-min Rain = 0
KPPS 180530Z 17011G16KT 24/14 A30 RMK A01 T02430143  RH  056%=      5-min Rain = 0
KPPS 180535Z 17011KT 24/14 A30 RMK A01 T02420144  RH  057%=      5-min Rain = 0
KPPS 180540Z 17010KT 24/15 A30 RMK A01 T02420145  RH  057%=      5-min Rain = 0
KPPS 180545Z 17010KT 24/15 A30 RMK A01 T02410146  RH  058%=      5-min Rain = 0
KPPS 180550Z 18010KT 24/15 A30 RMK A01 T02400147  RH  058%=      5-min Rain = 0
KPPS 180555Z 18010KT 24/15 A30 RMK A01 T02390147  RH  059%=      5-min Rain = 0
KPPS 180600Z 18010KT 24/15 A30 RMK A01 T02380148  RH  060%=      5-min Rain = 0
KPPS 180605Z 17011KT 24/15 A30 RMK A01 T02380149  RH  060%=      5-min Rain = 0
KPPS 180610Z 17011KT 24/15 A30 RMK A01 T02390151  RH  061%=      5-min Rain = 0
KPPS 180615Z 18010KT 24/15 A3001 RMK A01 T02390152  RH  061%=      5-min Rain = 0
KPPS 180620Z 18010KT 24/15 A3001 RMK A01 T02400153  RH  061%=      5-min Rain = 0
KPPS 180625Z 18010KT 24/15 A3001 RMK A01 T02410154  RH  061%=      5-min Rain = 0
KPPS 180630Z 18012KT 24/16 A3001 RMK A01 T02420155  RH  061%=      5-min Rain = 0
KPPS 180635Z 18012KT 24/16 A3001 RMK A01 T02430155  RH  061%=      5-min Rain = 0
KPPS 180640Z 18011KT 24/16 A3001 RMK A01 T02430156  RH  061%=      5-min Rain = 0
KPPS 180645Z 18011KT 24/16 A3001 RMK A01 T02430157  RH  061%=      5-min Rain = 0
KPPS 180650Z 18012KT 24/16 A3001 RMK A01 T02440157  RH  061%=      5-min Rain = 0
KPPS 180655Z 18011KT 24/16 A3001 RMK A01 T02440158  RH  061%=      5-min Rain = 0
KPPS 180700Z 18011G16KT 24/16 A3001 RMK A01 T02440158  RH  062%=      5-min Rain = 0
KPPS 180705Z 18010KT 24/16 A3001 RMK A01 T02440158  RH  062%=      5-min Rain = 0
KPPS 180710Z 18010KT 24/16 A3001 RMK A01 T02430158  RH  062%=      5-min Rain = 0
KPPS 180715Z 18011KT 24/16 A3001 RMK A01 T02420159  RH  062%=      5-min Rain = 0
KPPS 180720Z 18009KT 24/16 A3002 RMK A01 T02420159  RH  063%=      5-min Rain = 0
KPPS 180725Z 19009KT 24/16 A3002 RMK A01 T02410159  RH  063%=      5-min Rain = 0
KPPS 180730Z 19008KT 24/16 A3002 RMK A01 T02390158  RH  063%=      5-min Rain = 0
KPPS 180735Z 19008KT 24/16 A3002 RMK A01 T02380158  RH  064%=      5-min Rain = 0
KPPS 180740Z 19008KT 24/16 A3002 RMK A01 T02370159  RH  064%=      5-min Rain = 0
KPPS 180745Z 19008KT 24/16 A3002 RMK A01 T02360159  RH  065%=      5-min Rain = 0
KPPS 180750Z 19008KT 24/16 A3002 RMK A01 T02360159  RH  065%=      5-min Rain = 0
KPPS 180755Z 19008KT 24/16 A3002 RMK A01 T02360160  RH  065%=      5-min Rain = 0
KPPS 180800Z 19007KT 24/16 A3002 RMK A01 T02350160  RH  066%=      5-min Rain = 0
KPPS 180805Z 18007KT 23/16 A3002 RMK A01 T02340160  RH  066%=      5-min Rain = 0
KPPS 180810Z 18007KT 23/16 A3002 RMK A01 T02330160  RH  067%=      5-min Rain = 0
KPPS 180815Z 18007KT 23/16 A3002 RMK A01 T02320160  RH  067%=      5-min Rain = 0
KPPS 180820Z 18007KT 23/16 A3002 RMK A01 T02310160  RH  067%=      5-min Rain = 0
KPPS 180825Z 18008KT 23/16 A3002 RMK A01 T02310161  RH  068%=      5-min Rain = 0
KPPS 180830Z 18007KT 23/16 A3002 RMK A01 T02310161  RH  068%=      5-min Rain = 0
KPPS 180835Z 17008KT 23/16 A3002 RMK A01 T02310161  RH  068%=      5-min Rain = 0
KPPS 180840Z 17008KT 23/16 A3002 RMK A01 T02310161  RH  068%=      5-min Rain = 0
KPPS 180845Z 17007KT 23/16 A3002 RMK A01 T02300161  RH  068%=      5-min Rain = 0
KPPS 180850Z 17007KT 23/16 A3002 RMK A01 T02290161  RH  069%=      5-min Rain = 0
KPPS 180855Z 17007KT 23/16 A3002 RMK A01 T02290161  RH  069%=      5-min Rain = 0
KPPS 180900Z 17007KT 23/16 A3002 RMK A01 T02280161  RH  069%=      5-min Rain = 0
KPPS 180905Z 17007KT 23/16 A3002 RMK A01 T02270161  RH  070%=      5-min Rain = 0
KPPS 180910Z 18006KT 23/16 A3002 RMK A01 T02260161  RH  070%=      5-min Rain = 0
KPPS 180915Z 18005KT 22/16 A3002 RMK A01 T02240161  RH  071%=      5-min Rain = 0
KPPS 180920Z 17005KT 22/16 A3002 RMK A01 T02210160  RH  072%=      5-min Rain = 0
KPPS 180925Z 16006KT 22/16 A3002 RMK A01 T02200160  RH  072%=      5-min Rain = 0
KPPS 180930Z 16006KT 22/16 A3002 RMK A01 T02180160  RH  073%=      5-min Rain = 0
KPPS 180935Z 16006KT 22/16 A3002 RMK A01 T02170160  RH  073%=      5-min Rain = 0
KPPS 180940Z 15006KT 22/16 A3001 RMK A01 T02160160  RH  074%=      5-min Rain = 0
KPPS 180945Z 15007KT 21/16 A3001 RMK A01 T02130160  RH  075%=      5-min Rain = 0
KPPS 180950Z 16006KT 21/16 A3001 RMK A01 T02130160  RH  075%=      5-min Rain = 0
KPPS 180955Z 16007KT 21/16 A3001 RMK A01 T02140160  RH  075%=      5-min Rain = 0
KPPS 181000Z 16006KT 22/16 A3001 RMK A01 T02150160  RH  075%=      5-min Rain = 0
KPPS 181005Z 15006KT 21/16 A3001 RMK A01 T02130160  RH  075%=      5-min Rain = 0
KPPS 181010Z 15007KT 21/16 A3001 RMK A01 T02090159  RH  077%=      5-min Rain = 0
KPPS 181015Z 15007KT 21/16 A3001 RMK A01 T02060159  RH  078%=      5-min Rain = 0
KPPS 181020Z 15008KT 20/16 A3001 RMK A01 T02040159  RH  079%=      5-min Rain = 0
KPPS 181025Z 15008KT 20/16 A3001 RMK A01 T02030159  RH  079%=      5-min Rain = 0
KPPS 181030Z 14007KT 20/16 A3001 RMK A01 T02020158  RH  080%=      5-min Rain = 0
KPPS 181035Z 15007KT 20/16 A3001 RMK A01 T02020159  RH  080%=      5-min Rain = 0
KPPS 181040Z 15007KT 20/16 A3001 RMK A01 T02020159  RH  080%=      5-min Rain = 0
KPPS 181045Z 14007KT 20/16 A3001 RMK A01 T02010159  RH  080%=      5-min Rain = 0
KPPS 181050Z 15007KT 20/16 A3001 RMK A01 T02000158  RH  081%=      5-min Rain = 0
KPPS 181055Z 14008KT 20/16 A3001 RMK A01 T01990158  RH  081%=      5-min Rain = 0
KPPS 181100Z 15008KT 20/16 A3001 RMK A01 T01990159  RH  081%=      5-min Rain = 0
KPPS 181105Z 15008KT 20/16 A3001 RMK A01 T02000160  RH  081%=      5-min Rain = 0
KPPS 181110Z 15008KT 20/16 A3001 RMK A01 T02000160  RH  081%=      5-min Rain = 0
KPPS 181115Z 15008KT 20/16 A3001 RMK A01 T02020161  RH  081%=      5-min Rain = 0
KPPS 181120Z 15007KT 20/16 A3001 RMK A01 T02030161  RH  080%=      5-min Rain = 0
KPPS 181125Z 15007KT 20/16 A3001 RMK A01 T02040161  RH  080%=      5-min Rain = 0
KPPS 181130Z 15008KT 20/16 A3001 RMK A01 T02030161  RH  080%=      5-min Rain = 0
KPPS 181135Z 15008KT 21/16 A3001 RMK A01 T02050161  RH  079%=      5-min Rain = 0
KPPS 181140Z 15009KT 21/16 A3001 RMK A01 T02080161  RH  078%=      5-min Rain = 0
KPPS 181145Z 15009KT 21/16 A3001 RMK A01 T02090161  RH  078%=      5-min Rain = 0
KPPS 181200Z 15009KT 21/16 A3001 RMK A01 T02100160  RH  077%=      5-min Rain = 0
KPPS 181205Z 15008KT 21/16 A3001 RMK A01 T02080160  RH  077%=      5-min Rain = 0
KPPS 181210Z 16009KT 21/16 A3001 RMK A01 T02090159  RH  076%=      5-min Rain = 0
KPPS 181215Z 16009KT 21/16 A3001 RMK A01 T02100157  RH  075%=      5-min Rain = 0
KPPS 181220Z 16008KT 21/16 A3001 RMK A01 T02110157  RH  075%=      5-min Rain = 0
KPPS 181225Z 17009KT 21/16 A3001 RMK A01 T02120155  RH  073%=      5-min Rain = 0
KPPS 181230Z 16010KT 21/15 A3001 RMK A01 T02140154  RH  072%=      5-min Rain = 0
KPPS 181235Z 17010KT 22/15 A3001 RMK A01 T02160153  RH  071%=      5-min Rain = 0
KPPS 181240Z 17012KT 22/15 A3001 RMK A01 T02190151  RH  068%=      5-min Rain = 0
KPPS 181245Z 17012KT 22/15 A3001 RMK A01 T02220149  RH  066%=      5-min Rain = 0
KPPS 181250Z 18012KT 22/15 A3001 RMK A01 T02240148  RH  065%=      5-min Rain = 0
KPPS 181255Z 18013KT 23/15 A3001 RMK A01 T02250147  RH  064%=      5-min Rain = 0
KPPS 181300Z 18013KT 23/15 A3001 RMK A01 T02280147  RH  063%=      5-min Rain = 0
KPPS 181305Z 18014G19KT 23/15 A3001 RMK A01 T02300146  RH  062%=      5-min Rain = 0
KPPS 181310Z 18014KT 23/15 A3001 RMK A01 T02320145  RH  061%=      5-min Rain = 0
KPPS 181315Z 18014KT 24/15 A3001 RMK A01 T02350145  RH  059%=      5-min Rain = 0
KPPS 181320Z 18014KT 24/14 A3001 RMK A01 T02360144  RH  059%=      5-min Rain = 0
KPPS 181325Z 18013G18KT 24/15 A3001 RMK A01 T02390145  RH  058%=      5-min Rain = 0
KPPS 181330Z 18014G19KT 24/14 A3001 RMK A01 T02410144  RH  057%=      5-min Rain = 0
KPPS 181335Z 18014KT 24/15 A3001 RMK A01 T02440145  RH  056%=      5-min Rain = 0
KPPS 181340Z 18016KT 25/14 A3001 RMK A01 T02450144  RH  056%=      5-min Rain = 0
KPPS 181345Z 18016KT 25/14 A3001 RMK A01 T02460144  RH  055%=      5-min Rain = 0
KPPS 181350Z 18015KT 25/15 A3001 RMK A01 T02470145  RH  055%=      5-min Rain = 0
KPPS 181355Z 18015KT 25/15 A3001 RMK A01 T02500146  RH  055%=      5-min Rain = 0
KPPS 181400Z 18016KT 25/15 A3002 RMK A01 T02520145  RH  054%=      5-min Rain = 0
KPPS 181405Z 18016G21KT 25/15 A3001 RMK A01 T02520146  RH  054%=      5-min Rain = 0
KPPS 181410Z 18017KT 26/15 A3001 RMK A01 T02550146  RH  053%=      5-min Rain = 0
KPPS 181415Z 19015KT 26/15 A3002 RMK A01 T02560147  RH  053%=      5-min Rain = 0
KPPS 181420Z 18015KT 26/15 A3001 RMK A01 T02590148  RH  052%=      5-min Rain = 0
KPPS 181425Z 19016KT 26/15 A3001 RMK A01 T02620147  RH  052%=      5-min Rain = 0
KPPS 181430Z 19015G20KT 27/15 A3001 RMK A01 T02660148  RH  050%=      5-min Rain = 0
KPPS 181435Z 19014G19KT 27/15 A3001 RMK A01 T02690148  RH  049%=      5-min Rain = 0
KPPS 181440Z 19015G21KT 27/15 A3001 RMK A01 T02720148  RH  049%=      5-min Rain = 0
KPPS 181445Z 19015G20KT 27/15 A3001 RMK A01 T02720147  RH  048%=      5-min Rain = 0
KPPS 181450Z 20015KT 27/15 A3001 RMK A01 T02720147  RH  048%=      5-min Rain = 0
KPPS 181455Z 19016G23KT 28/15 A3001 RMK A01 T02760148  RH  048%=      5-min Rain = 0
KPPS 181500Z 20015G20KT 28/15 A3001 RMK A01 T02760147  RH  047%=      5-min Rain = 0
KPPS 181505Z 20015G20KT 28/15 A3001 RMK A01 T02800147  RH  046%=      5-min Rain = 0
KPPS 181510Z 20015KT 28/15 A3001 RMK A01 T02820147  RH  046%=      5-min Rain = 0
KPPS 181515Z 20015G20KT 29/15 A3001 RMK A01 T02860148  RH  045%=      5-min Rain = 0
KPPS 181520Z 19014G19KT 29/15 A3001 RMK A01 T02870148  RH  045%=      5-min Rain = 0
KPPS 181525Z 19014KT 29/15 A3001 RMK A01 T02920149  RH  044%=      5-min Rain = 0
KPPS 181530Z 20014G19KT 29/15 A3001 RMK A01 T02930148  RH  043%=      5-min Rain = 0
KPPS 181535Z 20013G18KT 29/15 A3001 RMK A01 T02940148  RH  043%=      5-min Rain = 0
KPPS 181540Z 19014G20KT 30/15 A3001 RMK A01 T02960148  RH  042%=      5-min Rain = 0
KPPS 181545Z 19014G19KT 30/15 A3001 RMK A01 T02960146  RH  042%=      5-min Rain = 0
KPPS 181550Z 19013KT 30/15 A3001 RMK A01 T03000148  RH  041%=      5-min Rain = 0
KPPS 181555Z 19013KT 30/15 A3001 RMK A01 T03020148  RH  041%=      5-min Rain = 0
KPPS 181600Z 20013G19KT 30/15 A30 RMK A01 T03040145  RH  040%=      5-min Rain = 0
KPPS 181605Z 21012G18KT 31/15 A30 RMK A01 T03080145  RH  039%=      5-min Rain = 0
KPPS 181610Z 20013G18KT 31/14 A30 RMK A01 T03080144  RH  038%=      5-min Rain = 0
KPPS 181615Z 20012G18KT 31/14 A30 RMK A01 T03120144  RH  038%=      5-min Rain = 0
KPPS 181620Z 20014G19KT 32/14 A30 RMK A01 T03150143  RH  037%=      5-min Rain = 0
KPPS 181625Z 21015G20KT 32/14 A30 RMK A01 T03170144  RH  037%=      5-min Rain = 0
KPPS 181630Z 20014KT 32/14 A30 RMK A01 T03170140  RH  036%=      5-min Rain = 0
KPPS 181635Z 21015G21KT 32/14 A30 RMK A01 T03200139  RH  035%=      5-min Rain = 0
KPPS 181640Z 20014G22KT 32/14 A30 RMK A01 T03240136  RH  033%=      5-min Rain = 0
KPPS 181645Z 21014G20KT 33/13 A30 RMK A01 T03280134  RH  032%=      5-min Rain = 0
KPPS 181650Z 21015KT 33/13 A30 RMK A01 T03280134  RH  032%=      5-min Rain = 0
KPPS 181655Z 22013G18KT 33/13 A30 RMK A01 T03310133  RH  031%=      5-min Rain = 0
KPPS 181700Z 21013KT 34/13 A30 RMK A01 T03350133  RH  031%=      5-min Rain = 0
KPPS 181705Z 21013G20KT 34/13 A30 RMK A01 T03350132  RH  031%=      5-min Rain = 0
KPPS 181710Z 20013G18KT 34/13 A2999 RMK A01 T03380134  RH  030%=      5-min Rain = 0
KPPS 181715Z 22011G19KT 34/13 A2999 RMK A01 T03370131  RH  030%=      5-min Rain = 0
KPPS 181720Z 20013G18KT 34/13 A2999 RMK A01 T03400134  RH  030%=      5-min Rain = 0
KPPS 181725Z 20013KT 34/13 A2999 RMK A01 T03420130  RH  029%=      5-min Rain = 0
KPPS 181730Z 21012G17KT 34/13 A2999 RMK A01 T03410131  RH  029%=      5-min Rain = 0
KPPS 181735Z 20012G20KT 34/13 A2999 RMK A01 T03430131  RH  029%=      5-min Rain = 0
KPPS 181740Z 21012G17KT 35/13 A2999 RMK A01 T03460130  RH  028%=      5-min Rain = 0
KPPS 181745Z 21012G18KT 35/13 A2999 RMK A01 T03450130  RH  028%=      5-min Rain = 0
KPPS 181750Z 19010G16KT 35/13 A2999 RMK A01 T03510131  RH  028%=      5-min Rain = 0
KPPS 181755Z 21012KT 35/13 A2998 RMK A01 T03530129  RH  027%=      5-min Rain = 0
KPPS 181800Z 20014KT 35/13 A2998 RMK A01 T03530128  RH  027%=      5-min Rain = 0
KPPS 181805Z 20013G20KT 35/13 A2998 RMK A01 T03510129  RH  027%=      5-min Rain = 0
KPPS 181810Z 20013KT 35/13 A2998 RMK A01 T03520127  RH  027%=      5-min Rain = 0
KPPS 181815Z 20012KT 35/13 A2998 RMK A01 T03540128  RH  027%=      5-min Rain = 0
KPPS 181820Z 20013G20KT 36/13 A2998 RMK A01 T03560125  RH  026%=      5-min Rain = 0
KPPS 181825Z 18014KT 36/12 A2997 RMK A01 T03590123  RH  025%=      5-min Rain = 0
KPPS 181830Z 19012KT 36/13 A2997 RMK A01 T03630129  RH  026%=      5-min Rain = 0
KPPS 181835Z 20013G19KT 36/13 A2997 RMK A01 T03630126  RH  025%=      5-min Rain = 0
KPPS 181840Z 20013KT 36/12 A2997 RMK A01 T03580124  RH  025%=      5-min Rain = 0
KPPS 181845Z 20012G20KT 36/12 A2997 RMK A01 T03570124  RH  025%=      5-min Rain = 0
KPPS 181850Z 18012G20KT 36/13 A2997 RMK A01 T03590125  RH  025%=      5-min Rain = 0
KPPS 181855Z 19012KT 36/12 A2997 RMK A01 T03640124  RH  024%=      5-min Rain = 0
KPPS 181900Z 21013G20KT 36/13 A2996 RMK A01 T03630126  RH  025%=      5-min Rain = 0
KPPS 181905Z 21013G18KT 36/13 A2996 RMK A01 T03620125  RH  025%=      5-min Rain = 0
KPPS 181910Z 20010G17KT 36/13 A2996 RMK A01 T03610127  RH  025%=      5-min Rain = 0
KPPS 181915Z 19013G21KT 37/12 A2996 RMK A01 T03670124  RH  024%=      5-min Rain = 0
KPPS 181920Z 20011G16KT 36/12 A2996 RMK A01 T03630124  RH  025%=      5-min Rain = 0
KPPS 181925Z 19013G20KT 37/12 A2995 RMK A01 T03680124  RH  024%=      5-min Rain = 0
KPPS 181930Z 21014G21KT 37/12 A2995 RMK A01 T03650121  RH  024%=      5-min Rain = 0
KPPS 181935Z 19013G21KT 37/12 A2995 RMK A01 T03690124  RH  024%=      5-min Rain = 0
KPPS 181940Z 19012KT 37/12 A2995 RMK A01 T03660120  RH  024%=      5-min Rain = 0
KPPS 181945Z 20011G20KT 37/12 A2995 RMK A01 T03660121  RH  024%=      5-min Rain = 0
KPPS 181950Z 20014G20KT 37/12 A2995 RMK A01 T03710122  RH  023%=      5-min Rain = 0
KPPS 181955Z 20013G21KT 37/12 A2995 RMK A01 T03680120  RH  023%=      5-min Rain = 0
KPPS 182000Z 19015G21KT 37/12 A2994 RMK A01 T03690117  RH  023%=      5-min Rain = 0
KPPS 182005Z 20013G19KT 37/12 A2994 RMK A01 T03690116  RH  023%=      5-min Rain = 0
KPPS 182010Z 19012G17KT 37/12 A2994 RMK A01 T03720117  RH  022%=      5-min Rain = 0
KPPS 182015Z 20013G22KT 37/12 A2994 RMK A01 T03740119  RH  023%=      5-min Rain = 0
KPPS 182020Z 23013G19KT 37/12 A2994 RMK A01 T03740119  RH  022%=      5-min Rain = 0
KPPS 182025Z 20010G18KT 37/12 A2994 RMK A01 T03730118  RH  023%=      5-min Rain = 0
KPPS 182030Z 18013G19KT 38/12 A2994 RMK A01 T03780118  RH  022%=      5-min Rain = 0
KPPS 182035Z 19014KT 38/12 A2994 RMK A01 T03750116  RH  022%=      5-min Rain = 0
KPPS 182040Z 21012G17KT 38/12 A2994 RMK A01 T03750119  RH  022%=      5-min Rain = 0
KPPS 182045Z 20012KT 38/12 A2994 RMK A01 T03790119  RH  022%=      5-min Rain = 0
KPPS 182050Z 19013G19KT 38/12 A2993 RMK A01 T03810119  RH  022%=      5-min Rain = 0
KPPS 182055Z 18013G18KT 38/12 A2994 RMK A01 T03790116  RH  022%=      5-min Rain = 0
KPPS 182100Z 22013G21KT 38/11 A2993 RMK A01 T03750114  RH  022%=      5-min Rain = 0
KPPS 182105Z 20013G20KT 37/12 A2993 RMK A01 T03720115  RH  022%=      5-min Rain = 0
KPPS 182110Z 19014G19KT 38/12 A2993 RMK A01 T03790119  RH  022%=      5-min Rain = 0
KPPS 182115Z 18012KT 38/12 A2993 RMK A01 T03780116  RH  022%=      5-min Rain = 0
KPPS 182120Z 20011KT 38/12 A2992 RMK A01 T03780116  RH  022%=      5-min Rain = 0
KPPS 182125Z 19010G17KT 38/12 A2992 RMK A01 T03800116  RH  021%=      5-min Rain = 0
KPPS 182130Z 17010KT 38/12 A2992 RMK A01 T03800119  RH  022%=      5-min Rain = 0
KPPS 182135Z 17013G18KT 38/12 A2992 RMK A01 T03830119  RH  022%=      5-min Rain = 0
KPPS 182140Z 17016G21KT 38/12 A2992 RMK A01 T03820122  RH  022%=      5-min Rain = 0
KPPS 182145Z 19014G20KT 38/12 A2992 RMK A01 T03790122  RH  022%=      5-min Rain = 0
KPPS 182150Z 20014G22KT 38/12 A2992 RMK A01 T03770120  RH  022%=      5-min Rain = 0
KPPS 182155Z 18014G21KT 37/12 A2992 RMK A01 T03730118  RH  023%=      5-min Rain = 0
KPPS 182200Z 20011G18KT 37/12 A2992 RMK A01 T03710119  RH  023%=      5-min Rain = 0
KPPS 182205Z 18016G23KT 37/12 A2992 RMK A01 T03710115  RH  022%=      5-min Rain = 0
KPPS 182210Z 17013G20KT 38/12 A2991 RMK A01 T03770117  RH  022%=      5-min Rain = 0
KPPS 182215Z 19012G17KT 37/12 A2991 RMK A01 T03740118  RH  022%=      5-min Rain = 0
KPPS 182220Z 17014G22KT 38/12 A2991 RMK A01 T03780118  RH  022%=      5-min Rain = 0
KPPS 182225Z 18013G19KT 38/12 A2991 RMK A01 T03790117  RH  022%=      5-min Rain = 0
KPPS 182230Z 19013G19KT 38/12 A2991 RMK A01 T03790118  RH  022%=      5-min Rain = 0
KPPS 182235Z 18015G20KT 38/12 A2991 RMK A01 T03760119  RH  022%=      5-min Rain = 0
KPPS 182240Z 18017G22KT 37/12 A299 RMK A01 T03730122  RH  023%=      5-min Rain = 0
KPPS 182245Z 16016G22KT 37/12 A299 RMK A01 T03730123  RH  023%=      5-min Rain = 0
KPPS 182250Z 18015G22KT 38/12 A299 RMK A01 T03760123  RH  023%=      5-min Rain = 0
KPPS 182255Z 18017G23KT 37/12 A299 RMK A01 T03730120  RH  023%=      5-min Rain = 0
KPPS 182300Z 18014G23KT 37/12 A299 RMK A01 T03690119  RH  023%=      5-min Rain = 0
KPPS 182305Z 16014G20KT 37/12 A299 RMK A01 T03690121  RH  023%=      5-min Rain = 0
KPPS 182310Z 16016G25KT 37/12 A299 RMK A01 T03710121  RH  023%=      5-min Rain = 0
KPPS 182315Z 17015G22KT 37/12 A299 RMK A01 T03690119  RH  023%=      5-min Rain = 0
KPPS 182320Z 18017G22KT 37/12 A299 RMK A01 T03700119  RH  023%=      5-min Rain = 0
KPPS 182325Z 18014G20KT 37/12 A299 RMK A01 T03670118  RH  023%=      5-min Rain = 0
KPPS 182330Z 18015G21KT 37/12 A2989 RMK A01 T03700118  RH  023%=      5-min Rain = 0
KPPS 182335Z 19015G20KT 37/12 A2989 RMK A01 T03680117  RH  023%=      5-min Rain = 0
KPPS 182340Z 19015KT 37/12 A2989 RMK A01 T03660116  RH  023%=      5-min Rain = 0
KPPS 182345Z 17011G18KT 37/12 A2989 RMK A01 T03650115  RH  023%=      5-min Rain = 0
KPPS 182350Z 17015G20KT 37/11 A2989 RMK A01 T03650114  RH  023%=      5-min Rain = 0
KPPS 182355Z 17012G17KT 36/11 A299 RMK A01 T03640113  RH  023%=      5-min Rain = 0
KPPS 190000Z 16013KT 36/11 A299 RMK A01 T03640114  RH  023%=      5-min Rain = 0
KPPS 190005Z 16013G18KT 36/11 A299 RMK A01 T03640114  RH  023%=      5-min Rain = 0
KPPS 190010Z 18013G18KT 36/11 A299 RMK A01 T03640114  RH  023%=      5-min Rain = 0
KPPS 190015Z 18012G19KT 36/11 A299 RMK A01 T03630114  RH  023%=      5-min Rain = 0
KPPS 190020Z 17012G18KT 36/11 A299 RMK A01 T03630113  RH  023%=      5-min Rain = 0
KPPS 190025Z 18015G20KT 36/11 A299 RMK A01 T03620112  RH  023%=      5-min Rain = 0
KPPS 190030Z 17013G20KT 36/11 A299 RMK A01 T03610112  RH  023%=      5-min Rain = 0
KPPS 190035Z 17013KT 36/11 A299 RMK A01 T03600112  RH  023%=      5-min Rain = 0
KPPS 190040Z 16015KT 36/11 A299 RMK A01 T03580110  RH  023%=      5-min Rain = 0
KPPS 190045Z 16014KT 36/11 A299 RMK A01 T03570110  RH  023%=      5-min Rain = 0
KPPS 190050Z 17013KT 36/11 A299 RMK A01 T03570111  RH  023%=      5-min Rain = 0
KPPS 190055Z 17014G19KT 36/11 A299 RMK A01 T03560108  RH  023%=      5-min Rain = 0
KPPS 190100Z 16014KT 35/11 A299 RMK A01 T03540110  RH  024%=      5-min Rain = 0
KPPS 190105Z 17016KT 35/11 A299 RMK A01 T03530108  RH  023%=      5-min Rain = 0
KPPS 190110Z 17014KT 35/11 A299 RMK A01 T03510107  RH  024%=      5-min Rain = 0
KPPS 190115Z 17013KT 35/11 A299 RMK A01 T03500107  RH  024%=      5-min Rain = 0
KPPS 190120Z 17012KT 35/11 A299 RMK A01 T03480107  RH  024%=      5-min Rain = 0
KPPS 190125Z 17014KT 35/11 A299 RMK A01 T03470105  RH  024%=      5-min Rain = 0
KPPS 190130Z 17012KT 35/11 A299 RMK A01 T03450106  RH  024%=      5-min Rain = 0
KPPS 190135Z 16011KT 34/11 A299 RMK A01 T03430106  RH  024%=      5-min Rain = 0
KPPS 190140Z 16011KT 34/11 A299 RMK A01 T03410106  RH  025%=      5-min Rain = 0
KPPS 190145Z 16010KT 34/11 A299 RMK A01 T03380107  RH  025%=      5-min Rain = 0
KPPS 190150Z 17010KT 34/11 A299 RMK A01 T03350107  RH  026%=      5-min Rain = 0
KPPS 190155Z 16010KT 33/11 A299 RMK A01 T03330106  RH  026%=      5-min Rain = 0
KPPS 190200Z 16010KT 33/11 A299 RMK A01 T03300106  RH  026%=      5-min Rain = 0
KPPS 190205Z 16009KT 33/11 A299 RMK A01 T03280107  RH  027%=      5-min Rain = 0
KPPS 190210Z 16010KT 33/11 A299 RMK A01 T03250112  RH  028%=      5-min Rain = 0
KPPS 190215Z 16012KT 33/12 A299 RMK A01 T03250115  RH  029%=      5-min Rain = 0
KPPS 190220Z 16012KT 33/12 A2991 RMK A01 T03250118  RH  029%=      5-min Rain = 0
KPPS 190225Z 16012KT 32/12 A2991 RMK A01 T03240120  RH  030%=      5-min Rain = 0
KPPS 190230Z 16013KT 32/12 A2991 RMK A01 T03220122  RH  031%=      5-min Rain = 0
KPPS 190235Z 16013G18KT 32/13 A2991 RMK A01 T03220125  RH  031%=      5-min Rain = 0
KPPS 190240Z 16013G18KT 32/13 A2991 RMK A01 T03200127  RH  032%=      5-min Rain = 0
KPPS 190245Z 16014KT 32/13 A2991 RMK A01 T03190128  RH  032%=      5-min Rain = 0
KPPS 190250Z 16014KT 32/13 A2991 RMK A01 T03180129  RH  033%=      5-min Rain = 0
KPPS 190255Z 16014G19KT 32/13 A2991 RMK A01 T03170130  RH  033%=      5-min Rain = 0
KPPS 190300Z 16014KT 32/13 A2991 RMK A01 T03160130  RH  034%=      5-min Rain = 0
KPPS 190305Z 16014KT 32/13 A2992 RMK A01 T03150131  RH  034%=      5-min Rain = 0
KPPS 190310Z 16015G21KT 31/13 A2992 RMK A01 T03140131  RH  034%=      5-min Rain = 0
KPPS 190315Z 16015G22KT 31/13 A2992 RMK A01 T03130131  RH  034%=      5-min Rain = 0
KPPS 190320Z 16015KT 31/13 A2992 RMK A01 T03130131  RH  034%=      5-min Rain = 0
KPPS 190325Z 16015G21KT 31/13 A2993 RMK A01 T03110131  RH  035%=      5-min Rain = 0
KPPS 190330Z 16014KT 31/13 A2993 RMK A01 T03090132  RH  035%=      5-min Rain = 0
KPPS 190335Z 16014KT 31/13 A2993 RMK A01 T03070132  RH  036%=      5-min Rain = 0
KPPS 190340Z 16015G21KT 31/13 A2994 RMK A01 T03060133  RH  036%=      5-min Rain = 0
KPPS 190345Z 17017KT 31/14 A2994 RMK A01 T03060136  RH  037%=      5-min Rain = 0
KPPS 190350Z 16016KT 31/14 A2994 RMK A01 T03060137  RH  037%=      5-min Rain = 0
KPPS 190355Z 16014G21KT 30/14 A2994 RMK A01 T03040138  RH  038%=      5-min Rain = 0
KPPS 190400Z 16014G21KT 30/14 A2994 RMK A01 T03020140  RH  039%=      5-min Rain = 0
KPPS 190405Z 16015G20KT 30/14 A2994 RMK A01 T03020141  RH  039%=      5-min Rain = 0
KPPS 190410Z 17015G21KT 30/14 A2994 RMK A01 T03010142  RH  040%=      5-min Rain = 0
KPPS 190415Z 16015G21KT 30/14 A2994 RMK A01 T03000143  RH  040%=      5-min Rain = 0
KPPS 190420Z 16014G20KT 30/14 A2995 RMK A01 T02980144  RH  041%=      5-min Rain = 0
KPPS 190425Z 17015G20KT 30/15 A2995 RMK A01 T02970146  RH  042%=      5-min Rain = 0
KPPS 190430Z 17017G22KT 30/15 A2995 RMK A01 T02970147  RH  042%=      5-min Rain = 0
KPPS 190435Z 17016G21KT 30/15 A2995 RMK A01 T02960148  RH  042%=      5-min Rain = 0
KPPS 190440Z 17015G23KT 30/15 A2995 RMK A01 T02950149  RH  043%=      5-min Rain = 0
KPPS 190445Z 17016KT 30/15 A2996 RMK A01 T02950150  RH  043%=      5-min Rain = 0
KPPS 190450Z 17016G22KT 29/15 A2996 RMK A01 T02940151  RH  044%=      5-min Rain = 0
KPPS 190455Z 17017G22KT 29/15 A2996 RMK A01 T02940152  RH  044%=      5-min Rain = 0

Page generated in 0.0191 seconds.